Epping, North Dakota
Current Conditions -  °F | °C
As of 12:52 PM on Friday 28 Nov 2014 (Local Time) from KISN Reporting Station
Overcast Overcast  
Wind Chill: 12°   Ceiling: 10000
Heat Index: 21°   Visibility: 10mi
Dew Point: 16°   Wind: 7mph
Humidity: 81%   Direction: 140°SE
Pressure: 29.56"   Gusts: NA
Location:  48.28°N, 103.36°W
Report Text: KISN 281852Z AUTO 14006KT 10SM FEW010 OVC100 M06/M09 A2956 RMK AO2 SLP044 T10611089
Loading
Personal Weather Stations






























Interactive Weather Map New forecast layout! Learn more

10-Day Weather Forecast

Advertisements
Track Severe Weather on mobile